VOBG

Details ICAO VOBG
Name Bangalore
Region India
Timezone Asia/Kolkata (UTC+5.5)
Plans Departing 274
Arriving 247
Stats Elevation 2,912 ft / 888 m (AMSL)
Location 12.950200° 77.670600°
Runways 1
Magnetic Variation 1.158° W
Sunrise 2018-10-20 00:41:21 UTC / 2018-10-20 06:11:21 Local
Sunset 2018-10-20 12:29:16 UTC / 2018-10-20 17:59:16 Local
Advertisement - Login to hide

Runways

ID Width Length Bearing (true/mag) Surface Threshold Overrun Markings Lighting
09 200 ft / 61 m 10,786 ft / 3,288 m 84.80° / 85.96° ASPHALT 0 ft / 0 m 950 ft / 290 m PREC-APP EDGE THRESHOLD SALS
27 200 ft / 61 m 10,786 ft / 3,288 m 264.81° / 265.97° ASPHALT 0 ft / 0 m 980 ft / 299 m PREC-APP EDGE THRESHOLD SALS

Approach Navaids

Runway Type Ident Frequency Range Bearing (true/mag) Slope Elevation
27 GS IBLR 110.50 MHz 10 nm / 19 km 265.62° / 266.77° 3.00° 2,943 ft / 897 m (AMSL)
27 DME IBLR 110.50 MHz 18 nm / 33 km - - 2,912 ft / 888 m (AMSL)
27 LOC-ILS IBLR 110.50 MHz 18 nm / 33 km 262.49° / 263.64° - 2,912 ft / 888 m (AMSL)

Map

Weather


0- 5 10 15 20 25 30 35+ Temperature / °C

Clouds and Precipitation
Forecast for 2018-10-19 18:00 UTC. Updated 4 hours ago

Ground ~20,000 ft ~40,000 ft Winds

METAR

VOBG 191800Z 09005KT 8000 FEW015 22/20 Q1017

TAF

Not found

Frequencies

Tower 123.50 MHz
Recorded 128.25 MHz ATIS
Approach 122.70 MHz
Approach 127.70 MHz
Warning: Do not use this data for real-world aviation or navigation. No guarantee of current accuracy is given.